createdAt,value
2023-01-26T00:00:38.947Z,101064.19
2023-01-26T00:03:41.230Z,101065.81
2023-01-26T00:06:43.387Z,101055.63
2023-01-26T00:09:45.529Z,101043.84
2023-01-26T00:12:47.692Z,101043.31
2023-01-26T00:15:49.850Z,101040.78
2023-01-26T00:18:52.224Z,101045.09
2023-01-26T00:21:54.410Z,101028.53
2023-01-26T00:24:56.690Z,101017.81
2023-01-26T00:27:59.007Z,101031.00
2023-01-26T00:31:05.587Z,101042.72
2023-01-26T00:34:07.798Z,101041.91
2023-01-26T00:37:09.925Z,101038.47
2023-01-26T00:40:12.482Z,101035.66
2023-01-26T00:43:14.873Z,101036.13
2023-01-26T00:46:17.064Z,101029.22
2023-01-26T00:49:19.275Z,101033.97
2023-01-26T00:52:21.436Z,101030.97
2023-01-26T00:55:32.200Z,101015.59
2023-01-26T00:58:35.558Z,101010.47
2023-01-26T01:01:37.755Z,101016.38
2023-01-26T01:04:41.464Z,101030.72
2023-01-26T01:07:43.603Z,101033.19
2023-01-26T01:10:45.713Z,101014.28
2023-01-26T01:13:47.863Z,101007.97
2023-01-26T01:16:50.224Z,101010.25
2023-01-26T01:19:52.450Z,100991.06
2023-01-26T01:22:57.044Z,101018.44
2023-01-26T01:25:59.829Z,101007.84
2023-01-26T01:29:02.688Z,100980.44
2023-01-26T01:32:05.033Z,100979.78
2023-01-26T01:35:07.763Z,101005.44
2023-01-26T01:38:10.019Z,100990.19
2023-01-26T01:41:13.058Z,101001.13
2023-01-26T01:44:23.412Z,101000.19
2023-01-26T01:47:26.836Z,100998.28
2023-01-26T01:50:31.840Z,100991.47
2023-01-26T01:53:37.925Z,101003.00
2023-01-26T01:56:42.893Z,100997.72
2023-01-26T01:59:51.617Z,100959.81
2023-01-26T02:03:11.473Z,100971.84
2023-01-26T02:06:18.857Z,100969.19
2023-01-26T02:09:57.577Z,100969.66
2023-01-26T02:13:03.023Z,100958.47
2023-01-26T02:16:26.492Z,100971.72
2023-01-26T02:23:18.842Z,100943.69
2023-01-26T02:26:25.379Z,100950.44
2023-01-26T02:29:30.433Z,100936.09
2023-01-26T02:32:35.221Z,100913.69
2023-01-26T02:35:43.059Z,100925.34
2023-01-26T02:38:56.052Z,100931.25
2023-01-26T02:42:17.064Z,100907.25
2023-01-26T02:45:19.271Z,100925.81
2023-01-26T02:48:41.474Z,100914.91
2023-01-26T02:51:43.714Z,100909.59
2023-01-26T02:55:04.622Z,100896.75
2023-01-26T02:58:07.647Z,100909.25
2023-01-26T03:01:10.190Z,100895.22
2023-01-26T03:04:22.065Z,100873.34
2023-01-26T03:07:24.682Z,100862.63
2023-01-26T03:10:27.129Z,100900.69
2023-01-26T03:13:29.385Z,100900.59
2023-01-26T03:16:33.991Z,100884.38
2023-01-26T03:19:54.642Z,100879.41
2023-01-26T03:23:18.381Z,100863.00
2023-01-26T03:26:54.193Z,100884.16
2023-01-26T03:30:09.083Z,100852.84
2023-01-26T03:33:27.243Z,100845.34
2023-01-26T03:36:30.780Z,100878.78
2023-01-26T03:39:52.547Z,100870.06
2023-01-26T03:43:13.470Z,100868.31
2023-01-26T03:46:40.614Z,100840.91
2023-01-26T03:50:03.796Z,100851.13
2023-01-26T03:53:35.149Z,100850.78
2023-01-26T03:56:37.396Z,100840.91
2023-01-26T03:59:53.098Z,100831.84
2023-01-26T04:06:54.637Z,100847.75
2023-01-26T04:09:56.843Z,100830.88
2023-01-26T04:13:17.464Z,100840.94
2023-01-26T04:16:43.491Z,100832.91
2023-01-26T04:20:14.936Z,100834.94
2023-01-26T04:23:22.056Z,100837.66
2023-01-26T04:26:37.095Z,100823.31
2023-01-26T04:29:42.761Z,100823.88
2023-01-26T04:32:46.309Z,100813.16
2023-01-26T04:35:55.482Z,100809.94
2023-01-26T04:39:00.523Z,100823.84
2023-01-26T04:42:03.532Z,100829.72
2023-01-26T04:45:10.251Z,100818.19
2023-01-26T04:48:30.090Z,100807.78
2023-01-26T04:51:32.808Z,100817.03
2023-01-26T04:54:53.897Z,100817.69
2023-01-26T04:57:57.479Z,100815.31
2023-01-26T05:00:59.716Z,100813.34
2023-01-26T05:04:03.950Z,100820.97
2023-01-26T05:07:07.696Z,100823.06
2023-01-26T05:13:36.563Z,100793.81
2023-01-26T05:20:58.475Z,100822.88
2023-01-26T05:24:02.411Z,100813.81
2023-01-26T05:27:33.774Z,100821.53
2023-01-26T05:30:41.244Z,100821.53
2023-01-26T05:34:21.811Z,100813.28
2023-01-26T05:37:45.972Z,100812.56
2023-01-26T05:41:08.846Z,100820.03
2023-01-26T05:44:46.285Z,100834.75
2023-01-26T05:48:08.509Z,100823.81
2023-01-26T05:51:10.818Z,100820.31
2023-01-26T05:54:14.036Z,100822.06
2023-01-26T05:57:17.510Z,100811.53
2023-01-26T06:00:25.278Z,100803.31
2023-01-26T06:03:34.919Z,100824.19
2023-01-26T06:06:37.141Z,100814.13
2023-01-26T06:09:53.840Z,100811.66
2023-01-26T06:13:24.390Z,100796.34
2023-01-26T06:16:29.866Z,100812.81
2023-01-26T06:19:32.155Z,100792.59
2023-01-26T06:22:36.496Z,100816.94
2023-01-26T06:25:42.102Z,100819.94
2023-01-26T06:28:44.521Z,100823.97
2023-01-26T06:31:48.318Z,100831.16
2023-01-26T06:34:53.322Z,100824.22
2023-01-26T06:37:56.239Z,100829.66
2023-01-26T06:41:07.767Z,100830.47
2023-01-26T06:44:10.779Z,100806.16
2023-01-26T06:47:13.903Z,100793.81
2023-01-26T06:50:19.963Z,100789.41
2023-01-26T06:53:30.597Z,100814.00
2023-01-26T06:56:57.205Z,100792.19
2023-01-26T07:00:22.500Z,100783.25
2023-01-26T07:03:49.440Z,100806.22
2023-01-26T07:06:51.790Z,100788.66
2023-01-26T07:09:58.725Z,100813.66
2023-01-26T07:16:26.381Z,100753.97
2023-01-26T07:19:30.419Z,100794.63
2023-01-26T07:22:32.645Z,100795.56
2023-01-26T07:25:34.782Z,100798.47
2023-01-26T07:28:39.829Z,100793.25
2023-01-26T07:31:46.644Z,100797.38
2023-01-26T07:34:49.299Z,100793.53
2023-01-26T07:37:51.423Z,100770.03
2023-01-26T07:40:53.662Z,100775.22
2023-01-26T07:43:56.483Z,100773.53
2023-01-26T07:46:58.818Z,100795.91
2023-01-26T07:50:01.049Z,100791.44
2023-01-26T07:53:03.732Z,100771.84
2023-01-26T07:56:08.036Z,100780.00
2023-01-26T07:59:11.706Z,100779.28
2023-01-26T08:02:14.134Z,100789.03
2023-01-26T08:05:18.596Z,100777.28
2023-01-26T08:08:21.932Z,100782.38
2023-01-26T08:11:26.215Z,100770.03
2023-01-26T08:14:45.911Z,100792.72
2023-01-26T08:17:48.814Z,100790.69
2023-01-26T08:20:53.010Z,100801.28
2023-01-26T08:23:55.614Z,100781.13
2023-01-26T08:26:57.765Z,100766.00
2023-01-26T08:29:59.999Z,100777.69
2023-01-26T08:33:03.028Z,100786.41
2023-01-26T08:36:07.189Z,100764.00
2023-01-26T08:39:09.530Z,100781.84
2023-01-26T08:42:11.706Z,100783.22
2023-01-26T08:45:13.892Z,100777.97
2023-01-26T08:48:16.143Z,100777.53
2023-01-26T08:51:18.586Z,100782.13
2023-01-26T08:54:24.536Z,100773.50
2023-01-26T08:57:27.331Z,100769.03
2023-01-26T09:00:29.995Z,100776.25
2023-01-26T09:03:32.428Z,100782.69
2023-01-26T09:06:39.615Z,100788.19
2023-01-26T09:09:41.855Z,100770.09
2023-01-26T09:12:44.026Z,100759.69
2023-01-26T09:15:46.154Z,100784.19
2023-01-26T09:18:54.320Z,100766.66
2023-01-26T09:21:56.489Z,100777.34
2023-01-26T09:24:58.717Z,100784.66
2023-01-26T09:28:04.584Z,100759.06
2023-01-26T09:31:10.857Z,100785.00
2023-01-26T09:34:13.330Z,100761.69
2023-01-26T09:37:21.666Z,100784.59
2023-01-26T09:41:05.900Z,100777.31
2023-01-26T09:44:20.594Z,100736.56
2023-01-26T09:47:30.905Z,100762.09
2023-01-26T09:50:54.874Z,100762.19
2023-01-26T09:54:18.579Z,100764.94
2023-01-26T09:58:03.643Z,100693.72
2023-01-26T10:01:19.099Z,100693.91
2023-01-26T10:04:36.884Z,100747.59
2023-01-26T10:07:45.373Z,100744.59
2023-01-26T10:10:51.106Z,100746.88
2023-01-26T10:14:20.679Z,100728.41
2023-01-26T10:17:31.887Z,100723.97
2023-01-26T10:20:39.169Z,100726.97
2023-01-26T10:23:48.556Z,100714.75
2023-01-26T10:26:57.233Z,100721.81
2023-01-26T10:30:02.747Z,100706.78
2023-01-26T10:33:20.800Z,100706.09
2023-01-26T10:36:29.243Z,100705.59
2023-01-26T10:39:32.043Z,100709.47
2023-01-26T10:42:37.279Z,100688.81
2023-01-26T10:45:47.914Z,100711.78
2023-01-26T10:48:55.964Z,100708.03
2023-01-26T10:52:26.161Z,100693.06
2023-01-26T10:59:03.303Z,100663.91
2023-01-26T11:02:11.717Z,100691.19
2023-01-26T11:05:20.248Z,100669.63
2023-01-26T11:08:41.532Z,100648.91
2023-01-26T11:11:55.560Z,100679.84
2023-01-26T11:15:04.182Z,100670.44
2023-01-26T11:18:57.737Z,100673.03
2023-01-26T11:22:05.284Z,100662.50
2023-01-26T11:25:27.305Z,100660.16
2023-01-26T11:28:39.397Z,100661.09
2023-01-26T11:32:25.756Z,100656.13
2023-01-26T11:35:56.493Z,100644.78
2023-01-26T11:39:35.142Z,100644.22
2023-01-26T11:42:49.410Z,100648.31
2023-01-26T11:46:21.238Z,100629.34
2023-01-26T11:49:44.735Z,100625.44
2023-01-26T11:53:41.033Z,100615.69
2023-01-26T11:57:15.158Z,100611.13
2023-01-26T12:00:43.175Z,100612.13
2023-01-26T12:04:06.088Z,100541.03
2023-01-26T12:07:55.926Z,100566.75
2023-01-26T12:11:24.122Z,100593.19
2023-01-26T12:14:42.206Z,100591.97
2023-01-26T12:18:00.669Z,100581.06
2023-01-26T12:21:10.647Z,100571.78
2023-01-26T12:25:04.790Z,100536.56
2023-01-26T12:27:48.174Z,100566.47
2023-01-26T12:31:11.685Z,100575.22
2023-01-26T12:34:14.124Z,100562.38
2023-01-26T12:37:43.865Z,100546.41
2023-01-26T12:40:55.321Z,100566.75
2023-01-26T12:44:04.106Z,100556.75
2023-01-26T12:47:17.819Z,100558.22
2023-01-26T12:50:23.101Z,100553.25
2023-01-26T12:53:58.346Z,100560.88
2023-01-26T12:57:05.797Z,100477.63
2023-01-26T13:00:21.923Z,100563.72
2023-01-26T13:03:35.820Z,100561.56
2023-01-26T13:06:39.161Z,100549.81
2023-01-26T13:10:17.800Z,100549.03
2023-01-26T13:13:29.678Z,100532.94
2023-01-26T13:16:33.563Z,100538.88
2023-01-26T13:19:42.000Z,100560.00
2023-01-26T13:22:44.276Z,100542.31
2023-01-26T13:32:54.073Z,100551.44
2023-01-26T13:36:08.717Z,100524.91
2023-01-26T13:39:32.492Z,100555.28
2023-01-26T13:42:51.262Z,100530.47
2023-01-26T13:46:36.044Z,100554.69
2023-01-26T13:49:40.701Z,100520.34
2023-01-26T13:52:43.228Z,100535.69
2023-01-26T13:55:50.483Z,100551.44
2023-01-26T13:58:54.137Z,100527.63
2023-01-26T14:01:58.176Z,100541.31
2023-01-26T14:05:16.558Z,100522.38
2023-01-26T14:08:22.085Z,100547.00
2023-01-26T14:11:26.798Z,100544.84
2023-01-26T14:14:34.875Z,100541.84
2023-01-26T14:17:48.829Z,100538.25
2023-01-26T14:20:58.646Z,100542.44
2023-01-26T14:24:00.849Z,100546.56
2023-01-26T14:27:03.861Z,100554.78
2023-01-26T14:30:24.750Z,100554.06
2023-01-26T14:33:27.392Z,100546.03
2023-01-26T14:36:33.128Z,100524.41
2023-01-26T14:39:35.377Z,100536.53
2023-01-26T14:42:38.130Z,100534.88
2023-01-26T14:45:47.425Z,100540.31
2023-01-26T14:48:58.410Z,100544.22
2023-01-26T14:52:00.804Z,100544.22
2023-01-26T14:55:08.866Z,100525.31
2023-01-26T14:58:18.224Z,100520.44
2023-01-26T15:01:22.746Z,100524.66
2023-01-26T15:04:28.387Z,100517.66
2023-01-26T15:07:34.351Z,100529.78
2023-01-26T15:10:40.931Z,100534.75
2023-01-26T15:13:45.469Z,100542.31
2023-01-26T15:16:53.783Z,100533.50
2023-01-26T15:19:55.987Z,100515.44
2023-01-26T15:22:58.165Z,100534.44
2023-01-26T15:26:30.364Z,100544.22
2023-01-26T15:29:35.037Z,100533.88
2023-01-26T15:32:39.502Z,100535.75
2023-01-26T15:35:41.676Z,100536.34
2023-01-26T15:38:43.821Z,100530.13
2023-01-26T15:41:58.557Z,100524.97
2023-01-26T15:45:00.744Z,100529.69
2023-01-26T15:48:03.173Z,100525.13
2023-01-26T15:51:09.900Z,100524.84
2023-01-26T15:54:12.183Z,100534.75
2023-01-26T15:57:14.447Z,100521.19
2023-01-26T16:00:17.503Z,100532.63
2023-01-26T16:03:21.124Z,100538.81
2023-01-26T16:06:28.724Z,100536.03
2023-01-26T16:09:30.959Z,100535.00
2023-01-26T16:12:33.112Z,100533.81
2023-01-26T16:15:42.149Z,100547.50
2023-01-26T16:18:47.844Z,100502.19
2023-01-26T16:21:50.100Z,100514.19
2023-01-26T16:24:52.318Z,100522.03
2023-01-26T16:27:57.275Z,100527.75
2023-01-26T16:31:02.342Z,100497.88
2023-01-26T16:34:04.742Z,100531.78
2023-01-26T16:37:06.964Z,100530.38
2023-01-26T16:40:10.772Z,100536.34
2023-01-26T16:43:18.507Z,100540.31
2023-01-26T16:46:20.971Z,100511.47
2023-01-26T16:49:25.866Z,100507.50
2023-01-26T16:52:28.090Z,100499.59
2023-01-26T16:55:32.552Z,100519.25
2023-01-26T17:01:50.946Z,100511.53
2023-01-26T17:04:53.264Z,100521.50
2023-01-26T17:07:55.458Z,100511.97
2023-01-26T17:11:02.392Z,100484.41
2023-01-26T17:14:05.139Z,100518.16
2023-01-26T17:17:10.276Z,100522.34
2023-01-26T17:20:19.427Z,100516.72
2023-01-26T17:23:22.129Z,100517.34
2023-01-26T17:26:24.418Z,100519.72
2023-01-26T17:29:26.782Z,100523.66
2023-01-26T17:32:28.943Z,100522.13
2023-01-26T17:35:31.098Z,100505.06
2023-01-26T17:38:33.336Z,100506.97
2023-01-26T17:41:35.548Z,100492.59
2023-01-26T17:44:37.825Z,100476.31
2023-01-26T17:47:39.964Z,100511.78
2023-01-26T17:50:49.135Z,100505.34
2023-01-26T17:53:51.351Z,100499.03
2023-01-26T17:56:54.873Z,100504.25
2023-01-26T17:59:57.186Z,100501.13
2023-01-26T18:02:59.282Z,100497.13
2023-01-26T18:06:01.603Z,100509.06
2023-01-26T18:09:04.062Z,100500.97
2023-01-26T18:12:06.592Z,100510.59
2023-01-26T18:15:09.132Z,100494.47
2023-01-26T18:18:12.008Z,100499.09
2023-01-26T18:21:19.846Z,100497.38
2023-01-26T18:24:22.104Z,100491.41
2023-01-26T18:27:24.318Z,100489.69
2023-01-26T18:30:26.676Z,100489.44
2023-01-26T18:33:28.944Z,100466.91
2023-01-26T18:36:34.355Z,100487.91
2023-01-26T18:39:37.249Z,100482.41
2023-01-26T18:42:39.627Z,100492.34
2023-01-26T18:45:42.713Z,100494.47
2023-01-26T18:48:44.884Z,100508.50
2023-01-26T18:51:51.591Z,100502.94
2023-01-26T18:54:53.776Z,100499.59
2023-01-26T18:57:55.909Z,100503.28
2023-01-26T19:00:58.588Z,100489.69
2023-01-26T19:04:02.828Z,100465.22
2023-01-26T19:07:05.024Z,100482.34
2023-01-26T19:10:07.446Z,100487.91
2023-01-26T19:13:09.702Z,100478.03
2023-01-26T19:16:11.868Z,100460.91
2023-01-26T19:19:14.160Z,100445.25
2023-01-26T19:22:16.379Z,100476.63
2023-01-26T19:25:18.512Z,100462.63
2023-01-26T19:28:21.196Z,100475.78
2023-01-26T19:31:24.451Z,100474.66
2023-01-26T19:34:28.427Z,100452.06
2023-01-26T19:37:30.651Z,100464.13
2023-01-26T19:40:33.107Z,100458.38
2023-01-26T19:43:35.236Z,100455.22
2023-01-26T19:46:37.654Z,100456.94
2023-01-26T19:49:39.758Z,100452.91
2023-01-26T19:52:41.985Z,100467.72
2023-01-26T19:55:44.076Z,100442.63
2023-01-26T19:58:57.680Z,100453.22
2023-01-26T20:01:59.885Z,100440.53
2023-01-26T20:05:02.063Z,100440.72
2023-01-26T20:08:04.748Z,100455.03
2023-01-26T20:11:08.423Z,100432.34
2023-01-26T20:14:11.019Z,100422.91
2023-01-26T20:17:13.206Z,100443.94
2023-01-26T20:20:16.311Z,100459.34
2023-01-26T20:23:19.223Z,100419.84
2023-01-26T20:26:21.435Z,100418.31
2023-01-26T20:29:23.683Z,100446.13
2023-01-26T20:32:32.859Z,100449.22
2023-01-26T20:35:43.562Z,100417.69
2023-01-26T20:38:47.472Z,100449.00
2023-01-26T20:41:49.707Z,100405.19
2023-01-26T20:44:51.953Z,100436.69
2023-01-26T20:47:54.330Z,100448.38
2023-01-26T20:50:56.506Z,100439.53
2023-01-26T20:53:58.703Z,100445.31
2023-01-26T20:57:01.422Z,100453.91
2023-01-26T21:00:05.300Z,100460.91
2023-01-26T21:03:07.482Z,100420.53
2023-01-26T21:06:12.465Z,100449.91
2023-01-26T21:09:14.632Z,100431.19
2023-01-26T21:12:16.840Z,100410.81
2023-01-26T21:15:19.739Z,100416.13
2023-01-26T21:18:22.341Z,100426.25
2023-01-26T21:21:24.917Z,100434.28
2023-01-26T21:24:27.188Z,100412.44
2023-01-26T21:27:29.411Z,100431.38
2023-01-26T21:30:31.636Z,100420.91
2023-01-26T21:33:37.062Z,100416.66
2023-01-26T21:36:39.250Z,100428.09
2023-01-26T21:39:41.382Z,100423.44
2023-01-26T21:42:43.543Z,100419.00
2023-01-26T21:45:54.923Z,100390.06
2023-01-26T21:48:57.607Z,100418.50
2023-01-26T21:52:18.393Z,100399.19
2023-01-26T21:55:20.618Z,100369.00
2023-01-26T21:58:41.273Z,100400.47
2023-01-26T22:01:47.262Z,100408.94
2023-01-26T22:04:49.816Z,100395.44
2023-01-26T22:07:53.065Z,100365.72
2023-01-26T22:10:56.147Z,100355.31
2023-01-26T22:14:00.791Z,100373.34
2023-01-26T22:17:06.078Z,100368.59
2023-01-26T22:20:09.527Z,100379.38
2023-01-26T22:23:11.659Z,100384.19
2023-01-26T22:29:38.216Z,100365.34
2023-01-26T22:32:42.506Z,100372.34
2023-01-26T22:35:47.699Z,100376.25
2023-01-26T22:38:50.391Z,100374.56
2023-01-26T22:41:52.723Z,100349.00
2023-01-26T22:44:54.975Z,100365.28
2023-01-26T22:47:57.200Z,100354.75
2023-01-26T22:51:09.364Z,100342.63
2023-01-26T22:54:11.557Z,100350.50
2023-01-26T22:57:13.660Z,100336.53
2023-01-26T23:00:16.484Z,100355.69
2023-01-26T23:03:18.719Z,100335.22
2023-01-26T23:06:21.447Z,100339.94
2023-01-26T23:09:23.610Z,100346.09
2023-01-26T23:12:34.155Z,100333.50
2023-01-26T23:15:37.931Z,100338.91
2023-01-26T23:18:40.344Z,100334.78
2023-01-26T23:21:42.482Z,100347.22
2023-01-26T23:25:04.585Z,100336.53
2023-01-26T23:28:06.862Z,100335.38
2023-01-26T23:31:10.252Z,100316.41
2023-01-26T23:34:12.379Z,100327.31
2023-01-26T23:37:14.539Z,100327.28
2023-01-26T23:40:16.987Z,100314.00
2023-01-26T23:43:19.207Z,100318.31
2023-01-26T23:46:21.545Z,100315.28
2023-01-26T23:49:24.786Z,100327.44
2023-01-26T23:52:28.650Z,100294.41
2023-01-26T23:55:31.219Z,100333.25
2023-01-26T23:58:33.539Z,100307.63
